Time;durP1;ratioP1;P1;durP2;ratioP2;P2;SDS_P1;SDS_P2;PMS_P1;PMS_P2;Temp;Humidity;BMP_temperature;BMP_pressure;BME280_temperature;BME280_humidity;BME280_pressure;Samples;Min_cycle;Max_cycle;Signal;HPM_P1;HPM_P2
2024/01/30 00:00:17;;;;;;;20.58;9.52;;;;;;;0.83;100.00;100192.69;5069353;28;20082;-53
2024/01/30 00:02:43;;;;;;;22.52;9.20;;;;;;;0.78;100.00;100188.66;5073461;28;20104;-54
2024/01/30 00:05:08;;;;;;;17.02;8.63;;;;;;;0.74;100.00;100187.19;5073822;28;20024;-54
2024/01/30 00:07:34;;;;;;;23.45;8.85;;;;;;;0.77;100.00;100192.28;5072641;28;20025;-54
2024/01/30 00:09:59;;;;;;;16.52;8.45;;;;;;;0.75;100.00;100195.06;5062255;28;20487;-54
2024/01/30 00:12:26;;;;;;;22.00;9.70;;;;;;;0.75;100.00;100194.19;5073534;28;20036;-53
2024/01/30 00:14:51;;;;;;;19.60;8.52;;;;;;;0.68;100.00;100187.59;5072037;28;20527;-55
2024/01/30 00:17:17;;;;;;;18.80;8.55;;;;;;;0.62;100.00;100192.38;5073494;28;20024;-53
2024/01/30 00:19:42;;;;;;;22.50;9.05;;;;;;;0.59;100.00;100181.94;5065742;28;20028;-53
2024/01/30 00:22:08;;;;;;;18.65;8.85;;;;;;;0.66;100.00;100190.38;5073210;28;20593;-53
2024/01/30 00:24:33;;;;;;;17.67;8.07;;;;;;;0.76;100.00;100195.91;5064948;28;20032;-53
2024/01/30 00:26:58;;;;;;;16.95;8.02;;;;;;;0.80;100.00;100200.06;5071154;28;20107;-53
2024/01/30 00:29:25;;;;;;;13.98;7.63;;;;;;;0.81;100.00;100191.09;5065940;28;20682;-53
2024/01/30 00:31:50;;;;;;;19.65;8.00;;;;;;;0.80;100.00;100186.75;5066172;28;20028;-53
2024/01/30 00:34:16;;;;;;;18.30;8.10;;;;;;;0.89;100.00;100191.41;5072312;28;20032;-54
2024/01/30 00:36:41;;;;;;;19.10;8.13;;;;;;;0.86;100.00;100189.84;5067954;28;20024;-54
2024/01/30 00:39:08;;;;;;;17.58;7.55;;;;;;;0.85;100.00;100197.94;5070117;28;20036;-54
2024/01/30 00:41:34;;;;;;;14.18;7.60;;;;;;;0.87;100.00;100188.03;5070012;28;20032;-53
2024/01/30 00:43:59;;;;;;;16.55;7.93;;;;;;;0.90;100.00;100193.13;5066662;28;20147;-54
2024/01/30 00:46:25;;;;;;;15.57;7.68;;;;;;;0.87;100.00;100198.69;5069775;28;20070;-54
2024/01/30 00:48:50;;;;;;;17.65;8.15;;;;;;;0.86;100.00;100202.28;5068683;28;20028;-54
2024/01/30 00:51:16;;;;;;;19.63;8.25;;;;;;;0.96;100.00;100202.50;5067126;28;20082;-54
2024/01/30 00:53:44;;;;;;;16.45;7.85;;;;;;;0.96;100.00;100202.50;5070090;28;20040;-53
2024/01/30 00:56:09;;;;;;;16.55;8.40;;;;;;;0.95;100.00;100203.47;5073557;28;20012;-54
2024/01/30 00:58:34;;;;;;;18.90;8.00;;;;;;;1.01;100.00;100197.72;5070467;28;20384;-54
2024/01/30 01:03:51;;;;;;;16.60;8.35;;;;;;;0.99;100.00;100191.63;5068025;22;20044;-62
2024/01/30 01:06:16;;;;;;;13.55;7.53;;;;;;;0.99;100.00;100188.97;5051429;28;20021;-62
2024/01/30 01:08:42;;;;;;;15.80;7.68;;;;;;;1.02;100.00;100200.28;5052006;28;20465;-63
2024/01/30 01:11:07;;;;;;;13.63;7.28;;;;;;;1.00;100.00;100196.03;5050597;28;20033;-62
2024/01/30 01:13:33;;;;;;;16.65;8.15;;;;;;;0.98;100.00;100195.28;5050937;28;20027;-63
2024/01/30 01:15:58;;;;;;;15.13;7.90;;;;;;;0.94;100.00;100194.59;5053004;28;20037;-62
2024/01/30 01:18:24;;;;;;;22.60;9.20;;;;;;;0.86;100.00;100197.84;5053164;28;20028;-62
2024/01/30 01:20:49;;;;;;;22.20;8.63;;;;;;;0.81;100.00;100196.44;5051349;28;20076;-62
2024/01/30 01:23:14;;;;;;;19.45;9.82;;;;;;;0.79;100.00;100198.38;5049546;28;20031;-62
2024/01/30 01:25:40;;;;;;;25.08;9.52;;;;;;;0.85;100.00;100193.44;5052852;28;20052;-62
2024/01/30 01:28:05;;;;;;;20.70;9.75;;;;;;;0.82;100.00;100192.81;5051175;28;20017;-63
2024/01/30 01:30:31;;;;;;;18.92;9.75;;;;;;;0.79;100.00;100182.38;5049541;28;20037;-62
2024/01/30 01:32:59;;;;;;;25.13;9.05;;;;;;;0.88;100.00;100190.56;5052288;28;20025;-62
2024/01/30 01:35:26;;;;;;;22.27;9.60;;;;;;;0.87;100.00;100199.53;5052359;28;20470;-62
2024/01/30 01:37:54;;;;;;;19.42;8.52;;;;;;;0.91;100.00;100194.84;5037570;28;20362;-62
2024/01/30 01:40:22;;;;;;;11.93;6.90;;;;;;;0.89;100.00;100186.09;5051984;28;20036;-62
2024/01/30 01:42:49;;;;;;;17.15;9.38;;;;;;;0.87;100.00;100188.03;5045452;28;20086;-64
2024/01/30 01:45:15;;;;;;;16.50;8.55;;;;;;;0.87;100.00;100188.88;5051777;28;20100;-62
2024/01/30 01:47:41;;;;;;;16.67;8.98;;;;;;;0.77;100.00;100186.97;5079426;22;20019;-78
2024/01/30 01:50:07;;;;;;;22.08;9.20;;;;;;;0.67;100.00;100173.44;5078457;28;20112;-77
2024/01/30 01:52:32;;;;;;;19.70;10.00;;;;;;;0.70;100.00;100177.69;5063034;28;20028;-77
2024/01/30 01:54:58;;;;;;;19.08;8.32;;;;;;;0.55;100.00;100167.16;5060588;28;20020;-77
2024/01/30 01:57:23;;;;;;;20.77;10.10;;;;;;;0.52;100.00;100178.00;5064866;28;20024;-77
2024/01/30 01:59:48;;;;;;;22.08;9.68;;;;;;;0.41;100.00;100175.22;5054618;28;20020;-77
2024/01/30 02:02:17;;;;;;;19.42;9.77;;;;;;;0.30;100.00;100177.75;5062995;28;20020;-77
2024/01/30 02:04:42;;;;;;;15.50;7.40;;;;;;;0.07;100.00;100148.22;5064121;28;20022;-77
2024/01/30 02:07:08;;;;;;;17.73;8.63;;;;;;;0.32;100.00;100186.50;5059202;28;20059;-77
2024/01/30 02:09:33;;;;;;;17.50;8.98;;;;;;;0.41;100.00;100192.03;5058294;28;20028;-77
2024/01/30 02:11:58;;;;;;;17.75;9.25;;;;;;;0.40;100.00;100189.50;5073771;28;20075;-77
2024/01/30 02:14:24;;;;;;;19.75;9.02;;;;;;;0.31;100.00;100179.47;5068916;28;20024;-77
2024/01/30 02:16:49;;;;;;;16.08;8.35;;;;;;;0.30;100.00;100188.41;5064262;28;20066;-77
2024/01/30 02:19:14;;;;;;;17.42;8.00;;;;;;;0.20;100.00;100190.84;5064947;28;20036;-77
2024/01/30 02:21:40;;;;;;;15.27;7.20;;;;;;;0.24;100.00;100187.03;5061284;28;20020;-78
2024/01/30 02:24:05;;;;;;;15.25;7.93;;;;;;;0.11;100.00;100149.75;5069201;28;20028;-78
2024/01/30 02:26:31;;;;;;;13.68;8.07;;;;;;;0.27;100.00;100185.97;5068226;28;20026;-77
2024/01/30 02:28:56;;;;;;;18.13;7.93;;;;;;;0.27;100.00;100193.94;5065884;28;20025;-78
2024/01/30 02:31:21;;;;;;;15.65;7.35;;;;;;;0.04;100.00;100180.38;5070107;28;20034;-78
2024/01/30 02:33:46;;;;;;;16.45;8.38;;;;;;;0.10;100.00;100179.94;5087140;28;20035;-78
2024/01/30 02:36:12;;;;;;;18.52;8.80;;;;;;;-0.06;100.00;100177.47;5088297;28;20320;-77
2024/01/30 02:38:37;;;;;;;17.85;8.73;;;;;;;-0.14;100.00;100171.78;5076657;28;20048;-79
2024/01/30 02:41:02;;;;;;;15.98;8.40;;;;;;;-0.16;100.00;100176.34;5065780;28;20069;-79
2024/01/30 02:43:27;;;;;;;18.33;8.82;;;;;;;-0.11;100.00;100181.38;5071329;28;20346;-78
2024/01/30 02:45:53;;;;;;;18.85;8.02;;;;;;;-0.19;100.00;100154.44;5070329;28;20264;-78
2024/01/30 02:48:18;;;;;;;18.38;8.27;;;;;;;-0.03;100.00;100192.38;5072548;28;20138;-78
2024/01/30 02:50:43;;;;;;;15.65;7.32;;;;;;;-0.02;100.00;100183.44;5075354;28;20219;-78
2024/01/30 02:53:08;;;;;;;15.63;8.25;;;;;;;0.02;100.00;100173.44;5061068;28;20036;-79
2024/01/30 02:55:34;;;;;;;21.13;7.97;;;;;;;-0.07;100.00;100185.56;5069747;28;20063;-77
2024/01/30 02:57:59;;;;;;;15.00;7.68;;;;;;;-0.01;100.00;100179.81;5072384;28;20032;-79
2024/01/30 03:00:24;;;;;;;14.20;6.85;;;;;;;-0.19;100.00;100159.75;5066731;28;20218;-79
2024/01/30 03:02:50;;;;;;;13.27;7.85;;;;;;;-0.05;100.00;100189.81;5072295;28;20066;-78
2024/01/30 03:05:15;;;;;;;16.95;7.57;;;;;;;-0.08;100.00;100162.56;5064481;28;20220;-78
2024/01/30 03:07:40;;;;;;;15.57;7.97;;;;;;;-0.08;100.00;100182.06;5070652;28;20038;-79
2024/01/30 03:10:06;;;;;;;16.13;7.35;;;;;;;-0.15;100.00;100187.88;5072568;28;20356;-78
2024/01/30 03:12:32;;;;;;;18.48;8.18;;;;;;;-0.23;100.00;100181.25;5069427;28;20036;-78
2024/01/30 03:14:57;;;;;;;17.73;7.35;;;;;;;-0.30;100.00;100179.09;5072482;28;20032;-78
2024/01/30 03:17:24;;;;;;;17.35;8.18;;;;;;;-0.47;100.00;100177.53;5070812;28;20228;-79
2024/01/30 03:19:49;;;;;;;18.65;8.82;;;;;;;-0.49;100.00;100180.28;5081892;28;20010;-78
2024/01/30 03:22:14;;;;;;;19.42;9.10;;;;;;;-0.45;100.00;100191.56;5085989;28;20029;-77
2024/01/30 03:24:40;;;;;;;18.17;8.23;;;;;;;-0.54;100.00;100176.22;5091230;28;20362;-79
2024/01/30 03:27:05;;;;;;;18.30;8.65;;;;;;;-0.62;100.00;100162.56;5063196;28;20058;-78
2024/01/30 03:29:30;;;;;;;21.70;8.07;;;;;;;-0.47;100.00;100194.34;5070154;28;20100;-79
2024/01/30 03:31:55;;;;;;;16.45;7.55;;;;;;;-0.56;100.00;100164.81;5069338;28;20334;-77
2024/01/30 03:34:21;;;;;;;16.27;7.97;;;;;;;-0.47;100.00;100188.16;5068823;28;20021;-77
2024/01/30 03:36:46;;;;;;;18.23;8.18;;;;;;;-0.53;100.00;100193.84;5065481;28;20056;-77
2024/01/30 03:39:12;;;;;;;13.32;7.35;;;;;;;-0.74;100.00;100165.03;5070870;28;20064;-79
2024/01/30 03:41:37;;;;;;;14.10;7.20;;;;;;;-0.55;100.00;100187.78;5070308;28;20028;-78
2024/01/30 03:44:03;;;;;;;13.70;6.57;;;;;;;-0.44;100.00;100203.91;5068343;28;20074;-78
2024/01/30 03:46:28;;;;;;;14.55;7.05;;;;;;;-0.60;100.00;100174.81;5070748;28;20039;-78
2024/01/30 03:48:54;;;;;;;13.15;6.75;;;;;;;-0.74;100.00;100149.09;5067864;28;20035;-78
2024/01/30 03:51:19;;;;;;;10.10;6.03;;;;;;;-0.44;100.00;100206.56;5066773;28;20261;-78
2024/01/30 03:53:48;;;;;;;14.95;6.57;;;;;;;-0.48;100.00;100203.25;5062744;28;20104;-79
2024/01/30 03:56:13;;;;;;;14.23;7.30;;;;;;;-0.63;100.00;100185.63;5067226;28;20089;-79
2024/01/30 03:58:39;;;;;;;13.40;6.45;;;;;;;-0.60;100.00;100185.44;5067214;28;20745;-79
2024/01/30 04:01:04;;;;;;;16.02;6.47;;;;;;;-0.39;100.00;100203.59;5062416;28;20048;-78
2024/01/30 04:03:30;;;;;;;13.48;7.25;;;;;;;-0.43;100.00;100204.75;5070253;28;20204;-78
2024/01/30 04:05:55;;;;;;;13.68;6.40;;;;;;;-0.47;100.00;100217.41;5081227;28;20040;-79
2024/01/30 04:08:21;;;;;;;12.85;6.50;;;;;;;-0.40;100.00;100208.06;5066918;28;20048;-79
2024/01/30 04:10:47;;;;;;;13.60;6.88;;;;;;;-0.43;100.00;100204.75;5048759;28;20070;-79
2024/01/30 04:13:13;;;;;;;13.77;6.88;;;;;;;-0.45;100.00;100191.56;5066976;28;20066;-79
2024/01/30 04:15:39;;;;;;;14.25;6.47;;;;;;;-0.46;100.00;100208.47;5064815;28;20021;-79
2024/01/30 04:18:05;;;;;;;16.48;6.88;;;;;;;-0.52;100.00;100206.22;5066115;28;20017;-79
2024/01/30 04:20:30;;;;;;;14.60;7.72;;;;;;;-0.67;100.00;100186.78;5064630;28;20028;-78
2024/01/30 04:22:58;;;;;;;14.35;8.60;;;;;;;-0.65;100.00;100199.97;5083197;28;20083;-78
2024/01/30 04:25:25;;;;;;;15.32;7.53;;;;;;;-0.59;100.00;100205.75;5057654;28;20071;-78
2024/01/30 04:27:51;;;;;;;19.20;7.63;;;;;;;-0.69;100.00;100186.00;5076169;28;20045;-78
2024/01/30 04:30:20;;;;;;;13.63;7.10;;;;;;;-0.61;100.00;100197.00;5065357;28;20027;-77
2024/01/30 04:32:45;;;;;;;14.27;7.60;;;;;;;-0.74;100.00;100177.47;5049142;28;20028;-78
2024/01/30 04:35:16;;;;;;;18.40;7.90;;;;;;;-0.67;100.00;100190.28;5059357;28;20017;-76
2024/01/30 04:37:41;;;;;;;16.38;7.93;;;;;;;-0.60;100.00;100188.09;5064193;28;20091;-78
2024/01/30 04:40:06;;;;;;;14.55;7.95;;;;;;;-0.67;100.00;100176.16;5061978;28;20033;-78
2024/01/30 04:42:32;;;;;;;15.52;7.72;;;;;;;-0.74;100.00;100173.00;5064896;28;20091;-78
2024/01/30 04:45:02;;;;;;;17.20;7.82;;;;;;;-0.67;100.00;100184.13;5065184;28;20091;-77
2024/01/30 04:47:30;;;;;;;15.88;7.60;;;;;;;-0.62;100.00;100199.78;5070283;28;20040;-77
2024/01/30 04:49:56;;;;;;;14.27;7.43;;;;;;;-0.74;100.00;100180.97;5048704;28;20025;-75
2024/01/30 04:52:21;;;;;;;16.95;7.47;;;;;;;-0.72;100.00;100181.75;5066649;28;20215;-75
2024/01/30 04:54:46;;;;;;;14.10;7.40;;;;;;;-0.73;100.00;100182.72;5061922;28;20044;-77
2024/01/30 04:57:12;;;;;;;13.25;6.60;;;;;;;-0.68;100.00;100191.25;5062189;28;20024;-75
2024/01/30 04:59:37;;;;;;;14.73;6.85;;;;;;;-0.63;100.00;100200.72;5047305;28;20343;-77
2024/01/30 05:02:03;;;;;;;13.50;6.88;;;;;;;-0.62;100.00;100195.31;5043510;28;20058;-76
2024/01/30 05:04:29;;;;;;;15.02;7.25;;;;;;;-0.66;100.00;100188.47;5065003;28;20027;-77
2024/01/30 05:06:55;;;;;;;14.82;7.50;;;;;;;-0.69;100.00;100184.19;5084294;28;20091;-76
2024/01/30 05:09:20;;;;;;;15.65;8.15;;;;;;;-0.73;100.00;100181.88;5062007;28;20024;-77
2024/01/30 05:11:45;;;;;;;13.15;7.00;;;;;;;-0.56;100.00;100188.75;5064774;28;20089;-77
2024/01/30 05:14:12;;;;;;;16.15;7.63;;;;;;;-0.62;100.00;100197.97;5064498;28;20045;-77
2024/01/30 05:16:37;;;;;;;15.00;7.53;;;;;;;-0.77;100.00;100178.53;5060674;28;20253;-76
2024/01/30 05:19:03;;;;;;;14.77;7.50;;;;;;;-0.87;100.00;100180.06;5083043;28;20020;-77
2024/01/30 05:21:28;;;;;;;17.73;8.02;;;;;;;-0.78;100.00;100195.44;5059942;28;20025;-77
2024/01/30 05:23:53;;;;;;;15.50;7.30;;;;;;;-0.68;100.00;100204.53;5042183;28;20018;-77
2024/01/30 05:26:22;;;;;;;14.48;8.15;;;;;;;-0.68;100.00;100190.41;5066019;28;20028;-78
2024/01/30 05:28:48;;;;;;;12.75;6.75;;;;;;;-0.74;100.00;100188.09;5085741;28;20024;-78
2024/01/30 05:31:13;;;;;;;14.48;7.47;;;;;;;-0.69;100.00;100191.31;5065323;28;20090;-77
2024/01/30 05:33:40;;;;;;;16.88;7.65;;;;;;;-0.67;100.00;100195.59;5067211;28;20019;-78
2024/01/30 05:36:06;;;;;;;16.20;7.90;;;;;;;-0.77;100.00;100170.56;5088963;28;20040;-79
2024/01/30 05:38:31;;;;;;;15.52;7.65;;;;;;;-0.56;100.00;100215.31;5070762;28;20028;-78
2024/01/30 05:41:01;;;;;;;15.20;7.65;;;;;;;-0.59;100.00;100218.19;5067128;28;20047;-77
2024/01/30 05:43:27;;;;;;;15.48;6.70;;;;;;;-0.68;100.00;100217.81;5066587;28;20029;-78
2024/01/30 05:45:53;;;;;;;14.10;6.97;;;;;;;-0.69;100.00;100223.22;5065800;28;20084;-78
2024/01/30 05:48:18;;;;;;;14.43;7.63;;;;;;;-0.73;100.00;100213.75;5065823;28;20039;-78
2024/01/30 05:50:44;;;;;;;14.85;7.85;;;;;;;-1.03;100.00;100177.50;5070169;22;20064;-52
2024/01/30 05:53:10;;;;;;;14.70;7.97;;;;;;;-0.76;100.00;100225.44;5050371;28;20350;-53
2024/01/30 05:55:36;;;;;;;15.98;7.95;;;;;;;-0.80;100.00;100221.25;5052426;28;20154;-53
2024/01/30 05:58:01;;;;;;;22.45;9.77;;;;;;;-0.79;100.00;100232.72;5045751;28;20052;-52
2024/01/30 06:00:26;;;;;;;20.70;9.32;;;;;;;-0.82;100.00;100239.06;5039762;28;20110;-53
2024/01/30 06:02:52;;;;;;;19.15;9.85;;;;;;;-0.83;100.00;100232.06;5049516;28;20041;-53
2024/01/30 06:05:17;;;;;;;18.45;9.07;;;;;;;-0.72;100.00;100236.72;5051448;28;20035;-52
2024/01/30 06:07:43;;;;;;;18.45;9.13;;;;;;;-0.74;100.00;100238.59;5046774;28;20380;-53
2024/01/30 06:10:08;;;;;;;17.65;9.50;;;;;;;-0.71;100.00;100233.97;5052750;28;20107;-53
2024/01/30 06:12:35;;;;;;;19.02;8.90;;;;;;;-0.68;100.00;100238.22;5043700;28;20118;-53
2024/01/30 06:15:00;;;;;;;13.68;8.15;;;;;;;-0.78;100.00;100214.03;5049558;28;20060;-53
2024/01/30 06:17:26;;;;;;;16.00;8.45;;;;;;;-0.69;100.00;100237.34;5045709;28;20057;-53
2024/01/30 06:19:51;;;;;;;19.63;8.48;;;;;;;-0.58;100.00;100238.47;5050525;28;20029;-53
2024/01/30 06:22:17;;;;;;;16.65;7.88;;;;;;;-0.60;100.00;100220.00;5049033;28;20036;-53
2024/01/30 06:24:44;;;;;;;15.50;7.18;;;;;;;-0.62;100.00;100224.53;5049909;28;20159;-53
2024/01/30 06:27:10;;;;;;;11.02;6.28;;;;;;;-0.71;100.00;100220.69;5052678;28;20036;-53
2024/01/30 06:29:35;;;;;;;11.30;6.82;;;;;;;-0.68;100.00;100227.59;5052909;28;20025;-53
2024/01/30 06:32:01;;;;;;;11.85;6.15;;;;;;;-0.73;100.00;100225.22;5047866;28;20388;-54
2024/01/30 06:34:26;;;;;;;13.35;6.43;;;;;;;-0.73;100.00;100225.22;5053351;28;20024;-53
2024/01/30 06:36:52;;;;;;;15.20;6.28;;;;;;;-0.69;100.00;100228.53;5049577;28;20111;-59
2024/01/30 06:39:18;;;;;;;14.85;7.18;;;;;;;-0.61;100.00;100233.38;5051185;28;20063;-58
2024/01/30 06:41:43;;;;;;;13.32;7.28;;;;;;;-0.58;100.00;100233.16;5043062;28;20060;-54
2024/01/30 06:44:09;;;;;;;13.48;6.88;;;;;;;-0.48;100.00;100235.16;5043143;28;20029;-53
2024/01/30 06:46:35;;;;;;;13.77;6.38;;;;;;;-0.51;100.00;100230.03;5047314;28;20040;-53
2024/01/30 06:49:01;;;;;;;11.85;6.10;;;;;;;-0.50;100.00;100236.19;5022314;28;20095;-54
2024/01/30 06:51:26;;;;;;;14.43;6.63;;;;;;;-0.41;100.00;100238.28;5050531;28;20591;-54
2024/01/30 06:53:52;;;;;;;13.48;6.93;;;;;;;-0.45;100.00;100231.44;5050337;28;20036;-53
2024/01/30 06:56:20;;;;;;;18.05;6.47;;;;;;;-0.52;100.00;100224.81;5052659;28;20047;-53
2024/01/30 06:58:52;;;;;;;13.18;6.78;;;;;;;-0.46;100.00;100237.72;5125878;22;20048;-56
2024/01/30 07:01:17;;;;;;;13.57;7.00;;;;;;;-0.40;100.00;100239.97;5087374;28;20028;-56
2024/01/30 07:03:43;;;;;;;12.80;7.32;;;;;;;-0.37;100.00;100236.25;5088341;28;20016;-56
2024/01/30 07:06:10;;;;;;;13.57;7.05;;;;;;;-0.32;100.00;100229.69;5076292;28;20052;-56
2024/01/30 07:08:37;;;;;;;16.83;8.48;;;;;;;-0.26;100.00;100233.78;5069383;28;20066;-56
2024/01/30 07:11:02;;;;;;;17.88;7.75;;;;;;;-0.20;100.00;100227.22;5071650;28;20074;-56
2024/01/30 07:13:28;;;;;;;14.68;7.15;;;;;;;-0.08;100.00;100235.25;5078352;28;20107;-56
2024/01/30 07:15:53;;;;;;;11.75;7.10;;;;;;;0.02;100.00;100246.13;5072571;28;20455;-56
2024/01/30 07:18:19;;;;;;;12.65;6.95;;;;;;;0.09;100.00;100243.94;5057978;28;20478;-56
2024/01/30 07:20:49;;;;;;;13.50;7.57;;;;;;;0.10;100.00;100241.16;5071873;28;20028;-56
2024/01/30 07:23:17;;;;;;;14.25;7.18;;;;;;;0.22;100.00;100247.47;5055092;28;20024;-56
2024/01/30 07:25:43;;;;;;;17.25;7.45;;;;;;;0.29;100.00;100234.59;5073904;28;20013;-57
2024/01/30 07:28:16;;;;;;;16.40;7.28;;;;;;;0.36;100.00;100241.22;5071161;28;20472;-56
2024/01/30 07:30:42;;;;;;;11.88;7.18;;;;;;;0.45;100.00;100235.31;5071053;28;20414;-56
2024/01/30 07:33:08;;;;;;;15.98;8.05;;;;;;;0.57;100.00;100239.78;5073627;28;20024;-56
2024/01/30 07:35:34;;;;;;;12.50;6.82;;;;;;;0.61;100.00;100237.78;5070354;28;20027;-56
2024/01/30 07:37:59;;;;;;;20.75;7.00;;;;;;;0.74;100.00;100235.13;5076361;28;20028;-56
2024/01/30 07:40:24;;;;;;;15.57;6.82;;;;;;;0.85;100.00;100225.41;5074316;28;20031;-57
2024/01/30 07:42:50;;;;;;;13.82;6.72;;;;;;;0.89;100.00;100234.03;5075288;28;20476;-56
2024/01/30 07:45:16;;;;;;;14.10;6.63;;;;;;;1.08;100.00;100223.81;5072270;28;20016;-57
2024/01/30 07:47:42;;;;;;;15.00;6.47;;;;;;;1.34;100.00;100234.47;5071434;28;20145;-56
2024/01/30 07:50:08;;;;;;;12.40;6.88;;;;;;;1.51;100.00;100215.41;5074563;28;20028;-56
2024/01/30 07:52:34;;;;;;;14.60;6.78;;;;;;;1.72;100.00;100221.00;5074356;28;20036;-56
2024/01/30 07:55:00;;;;;;;13.70;7.53;;;;;;;1.82;100.00;100209.69;5076460;28;20013;-56
2024/01/30 07:57:25;;;;;;;15.25;7.47;;;;;;;2.01;100.00;100215.34;5068667;28;20178;-56
2024/01/30 07:59:51;;;;;;;18.10;7.13;;;;;;;1.95;100.00;100211.31;5114336;22;20044;-55
2024/01/30 08:02:16;;;;;;;21.13;7.30;;;;;;;2.40;100.00;100211.50;5089785;28;20028;-55
2024/01/30 08:04:42;;;;;;;23.88;8.15;;;;;;;2.89;100.00;100206.03;5092101;28;20028;-55
2024/01/30 08:07:07;;;;;;;12.25;7.18;;;;;;;3.42;100.00;100206.28;5062212;28;20126;-55
2024/01/30 08:09:32;;;;;;;19.85;8.30;;;;;;;3.47;100.00;100193.41;5068268;28;20391;-59
2024/01/30 08:11:58;;;;;;;25.63;8.43;;;;;;;4.18;100.00;100204.50;5073059;28;20060;-55
2024/01/30 08:14:23;;;;;;;14.48;6.03;;;;;;;5.20;100.00;100191.34;5069603;28;20485;-55
2024/01/30 08:16:49;;;;;;;26.42;6.95;;;;;;;5.73;100.00;100196.44;5070209;28;20347;-56
2024/01/30 08:19:15;;;;;;;15.07;7.13;;;;;;;6.07;100.00;100196.13;5066063;28;20032;-60
2024/01/30 08:21:40;;;;;;;13.10;6.00;;;;;;;6.13;100.00;100198.22;5070708;28;20074;-60
2024/01/30 08:24:09;;;;;;;12.60;6.55;;;;;;;6.66;100.00;100194.28;5076430;28;20452;-59
2024/01/30 08:26:35;;;;;;;14.45;6.72;;;;;;;7.17;100.00;100193.00;5074326;28;20028;-60
2024/01/30 08:29:01;;;;;;;11.52;6.45;;;;;;;7.59;100.00;100196.06;5071883;28;20035;-56
2024/01/30 08:31:26;;;;;;;13.00;5.88;;;;;;;8.20;100.00;100199.06;5071817;28;20036;-56
2024/01/30 08:33:52;;;;;;;15.50;7.28;;;;;;;8.11;100.00;100200.84;5075119;28;20130;-56
2024/01/30 08:36:17;;;;;;;17.73;7.38;;;;;;;8.08;100.00;100202.00;5073070;28;20502;-55
2024/01/30 08:38:43;;;;;;;11.10;5.82;;;;;;;8.73;100.00;100203.63;5068809;28;20039;-55
2024/01/30 08:41:09;;;;;;;13.05;7.32;;;;;;;9.18;100.00;100200.72;5071603;28;20020;-56
2024/01/30 08:43:34;;;;;;;9.25;5.82;;;;;;;8.96;100.00;100209.34;5071193;28;20111;-54
2024/01/30 08:46:01;;;;;;;11.00;6.55;;;;;;;9.51;100.00;100208.13;5068897;28;20031;-55
2024/01/30 08:48:26;;;;;;;13.20;6.53;;;;;;;10.06;99.77;100203.09;5067143;28;20073;-55
2024/01/30 08:50:52;;;;;;;11.35;5.90;;;;;;;10.30;95.76;100194.22;5071966;28;20082;-54
2024/01/30 08:53:18;;;;;;;10.77;6.55;;;;;;;10.13;98.06;100200.56;5064919;28;20396;-59
2024/01/30 08:55:44;;;;;;;14.20;6.07;;;;;;;10.61;100.00;100204.38;5066225;28;20023;-55
2024/01/30 08:58:09;;;;;;;11.10;5.70;;;;;;;10.75;91.58;100210.97;5069973;28;20036;-54
2024/01/30 09:00:35;;;;;;;12.95;6.38;;;;;;;10.85;89.79;100211.63;5067280;28;20495;-58
2024/01/30 09:03:00;;;;;;;12.48;6.35;;;;;;;11.44;85.98;100208.63;5075157;28;20033;-64
2024/01/30 09:05:25;;;;;;;10.35;6.10;;;;;;;11.35;83.85;100210.53;5071366;28;20325;-59
2024/01/30 09:07:51;;;;;;;10.32;7.10;;;;;;;11.19;85.31;100216.84;5072560;28;20024;-59
2024/01/30 09:10:17;;;;;;;9.52;6.30;;;;;;;11.06;88.14;100223.81;5070370;28;20055;-58
2024/01/30 09:12:44;;;;;;;9.52;5.57;;;;;;;10.72;85.10;100219.44;5070289;28;20036;-55
2024/01/30 09:15:10;;;;;;;11.32;5.90;;;;;;;10.01;93.24;100213.56;5052033;28;20027;-54
2024/01/30 09:17:36;;;;;;;9.73;5.60;;;;;;;8.45;100.00;100217.22;5064857;28;20029;-57
2024/01/30 09:20:01;;;;;;;14.02;7.45;;;;;;;8.21;100.00;100222.34;5070982;28;20050;-58
2024/01/30 09:22:27;;;;;;;17.10;9.65;;;;;;;8.25;100.00;100218.31;5075868;28;20081;-58
2024/01/30 09:24:52;;;;;;;26.23;12.38;;;;;;;8.64;100.00;100220.75;5073320;28;20033;-60
2024/01/30 09:27:17;;;;;;;22.15;10.32;;;;;;;8.52;100.00;100221.00;5073737;28;20028;-63
2024/01/30 09:29:43;;;;;;;19.85;10.40;;;;;;;9.43;100.00;100219.75;5076365;28;20388;-62
2024/01/30 09:32:09;;;;;;;14.95;8.82;;;;;;;10.25;100.00;100220.88;5061645;28;20037;-59
2024/01/30 09:34:34;;;;;;;17.00;7.95;;;;;;;10.77;100.00;100216.19;5075136;28;20027;-58
2024/01/30 09:37:00;;;;;;;14.27;7.93;;;;;;;12.10;92.53;100214.63;5074163;28;20024;-58
2024/01/30 09:39:26;;;;;;;15.10;7.50;;;;;;;12.89;85.38;100212.53;5084291;28;20028;-63
2024/01/30 09:42:20;;;;;;;20.42;7.93;;;;;;;12.73;82.54;100215.34;5067705;28;20024;-59
2024/01/30 09:44:47;;;;;;;13.90;7.10;;;;;;;13.89;77.69;100219.44;5070629;28;20063;-59
2024/01/30 09:47:16;;;;;;;13.25;7.78;;;;;;;13.58;74.80;100219.63;5069902;28;20020;-58
2024/01/30 09:49:43;;;;;;;18.27;9.63;;;;;;;14.46;73.97;100217.75;5077384;28;20028;-54
2024/01/30 09:52:08;;;;;;;19.38;10.65;;;;;;;15.28;71.87;100210.94;5071310;28;20098;-58
2024/01/30 09:54:34;;;;;;;23.70;10.43;;;;;;;15.74;66.02;100213.09;5072837;28;20455;-59
2024/01/30 09:57:00;;;;;;;17.80;9.02;;;;;;;15.32;65.19;100223.13;5069549;28;20029;-59
2024/01/30 09:59:25;;;;;;;20.15;8.77;;;;;;;15.07;66.60;100214.56;5071591;28;20081;-55
2024/01/30 10:01:51;;;;;;;18.90;9.35;;;;;;;15.66;67.95;100219.53;5056788;28;20475;-55
2024/01/30 10:04:17;;;;;;;29.13;10.93;;;;;;;15.77;66.63;100213.56;5076330;28;20024;-55
2024/01/30 10:06:43;;;;;;;25.83;12.55;;;;;;;16.41;64.56;100215.03;5073392;28;20471;-55
2024/01/30 10:09:11;;;;;;;29.23;12.52;;;;;;;16.84;63.77;100211.13;5076395;28;20391;-58
2024/01/30 10:11:36;;;;;;;21.38;11.52;;;;;;;15.98;64.60;100215.34;5075705;28;20067;-55
2024/01/30 10:14:05;;;;;;;20.60;9.32;;;;;;;16.86;63.79;100215.31;5068916;28;20110;-55
2024/01/30 10:16:31;;;;;;;20.13;9.20;;;;;;;16.01;65.54;100211.34;5074529;28;20051;-56
2024/01/30 10:18:56;;;;;;;14.23;8.35;;;;;;;16.74;64.33;100207.91;5072143;28;20156;-55
2024/01/30 10:21:23;;;;;;;14.50;6.78;;;;;;;15.39;64.10;100224.00;5054789;28;20454;-55
2024/01/30 10:23:49;;;;;;;13.32;6.55;;;;;;;15.36;65.75;100212.66;5068275;28;20024;-55
2024/01/30 10:26:17;;;;;;;13.43;6.40;;;;;;;14.60;68.92;100218.78;5068082;28;20911;-55
2024/01/30 10:28:42;;;;;;;10.38;5.90;;;;;;;13.88;69.87;100217.72;5072381;28;20115;-54
2024/01/30 10:31:08;;;;;;;9.98;6.35;;;;;;;12.80;72.46;100208.16;5073615;28;20033;-62
2024/01/30 10:33:34;;;;;;;14.88;6.75;;;;;;;11.96;78.89;100208.09;5072955;28;20051;-58
2024/01/30 10:36:02;;;;;;;13.98;6.50;;;;;;;12.49;81.68;100206.38;5072927;28;20040;-55
2024/01/30 10:38:31;;;;;;;13.02;6.82;;;;;;;11.88;99.47;100205.44;5073815;28;20032;-59
2024/01/30 10:40:59;;;;;;;14.82;6.72;;;;;;;11.67;100.00;100199.75;5074668;28;20028;-55
2024/01/30 10:43:35;;;;;;;12.90;6.78;;;;;;;11.45;100.00;100204.91;5074978;28;20107;-55
2024/01/30 10:46:14;;;;;;;13.05;6.82;;;;;;;11.44;100.00;100200.50;5082645;28;20118;-56
2024/01/30 10:48:46;;;;;;;13.00;6.53;;;;;;;11.19;100.00;100192.44;5076287;28;20154;-56
2024/01/30 10:51:14;;;;;;;12.48;6.85;;;;;;;10.93;100.00;100198.09;5086082;28;20043;-56
2024/01/30 10:53:40;;;;;;;17.63;7.80;;;;;;;10.77;100.00;100194.53;5085492;28;20024;-56
2024/01/30 10:56:06;;;;;;;11.82;6.68;;;;;;;11.07;100.00;100199.25;5081251;28;20427;-55
2024/01/30 10:58:31;;;;;;;11.55;6.93;;;;;;;11.48;100.00;100201.84;5077989;28;20035;-59
2024/01/30 11:00:59;;;;;;;13.73;6.85;;;;;;;11.67;100.00;100191.59;5079318;28;20399;-60
2024/01/30 11:03:24;;;;;;;11.35;6.65;;;;;;;12.07;100.00;100199.53;5071717;28;20032;-60
2024/01/30 11:05:51;;;;;;;12.68;6.00;;;;;;;12.00;100.00;100203.19;5084101;28;20034;-55
2024/01/30 11:08:23;;;;;;;12.73;6.15;;;;;;;12.65;100.00;100188.28;5072623;28;20056;-57
2024/01/30 11:10:50;;;;;;;13.45;6.00;;;;;;;12.89;100.00;100189.91;5078213;28;20101;-56